sensor_id;sensor_type;location;lat;lon;timestamp;temperature;humidity
6443;DHT22;3254;47.372;8.512;2023-05-19T00:01:56;11.30;1.00
6443;DHT22;3254;47.372;8.512;2023-05-19T00:04:24;11.30;1.00
6443;DHT22;3254;47.372;8.512;2023-05-19T00:06:50;11.30;1.00
6443;DHT22;3254;47.372;8.512;2023-05-19T00:09:18;11.30;1.00
6443;DHT22;3254;47.372;8.512;2023-05-19T00:11:44;11.20;1.00
6443;DHT22;3254;47.372;8.512;2023-05-19T00:14:10;11.30;1.00
6443;DHT22;3254;47.372;8.512;2023-05-19T00:16:36;11.20;1.00
6443;DHT22;3254;47.372;8.512;2023-05-19T00:19:06;11.20;1.00
6443;DHT22;3254;47.372;8.512;2023-05-19T00:21:35;11.20;1.00
6443;DHT22;3254;47.372;8.512;2023-05-19T00:24:02;11.20;1.00
6443;DHT22;3254;47.372;8.512;2023-05-19T00:26:28;11.20;1.00
6443;DHT22;3254;47.372;8.512;2023-05-19T00:28:54;11.20;1.00
6443;DHT22;3254;47.372;8.512;2023-05-19T00:31:19;11.20;1.00
6443;DHT22;3254;47.372;8.512;2023-05-19T00:33:45;11.10;1.00
6443;DHT22;3254;47.372;8.512;2023-05-19T00:36:11;11.10;1.00
6443;DHT22;3254;47.372;8.512;2023-05-19T00:38:37;11.10;1.00
6443;DHT22;3254;47.372;8.512;2023-05-19T00:41:04;11.00;1.00
6443;DHT22;3254;47.372;8.512;2023-05-19T00:43:30;11.00;1.00
6443;DHT22;3254;47.372;8.512;2023-05-19T00:45:59;11.00;1.00
6443;DHT22;3254;47.372;8.512;2023-05-19T00:48:25;11.00;1.00
6443;DHT22;3254;47.372;8.512;2023-05-19T00:50:52;11.00;1.00
6443;DHT22;3254;47.372;8.512;2023-05-19T00:53:19;11.00;1.00
6443;DHT22;3254;47.372;8.512;2023-05-19T00:55:45;11.00;1.00
6443;DHT22;3254;47.372;8.512;2023-05-19T00:58:11;11.00;1.00
6443;DHT22;3254;47.372;8.512;2023-05-19T01:00:38;10.90;1.00
6443;DHT22;3254;47.372;8.512;2023-05-19T01:03:05;10.80;1.00
6443;DHT22;3254;47.372;8.512;2023-05-19T01:05:39;10.80;1.00
6443;DHT22;3254;47.372;8.512;2023-05-19T01:08:06;10.70;1.00
6443;DHT22;3254;47.372;8.512;2023-05-19T01:10:32;10.60;1.00
6443;DHT22;3254;47.372;8.512;2023-05-19T01:12:58;10.60;1.00
6443;DHT22;3254;47.372;8.512;2023-05-19T01:15:25;10.70;1.00
6443;DHT22;3254;47.372;8.512;2023-05-19T01:18:04;10.60;1.00
6443;DHT22;3254;47.372;8.512;2023-05-19T01:20:40;10.60;1.00
6443;DHT22;3254;47.372;8.512;2023-05-19T01:26:08;10.60;1.00
6443;DHT22;3254;47.372;8.512;2023-05-19T01:29:10;10.60;1.00
6443;DHT22;3254;47.372;8.512;2023-05-19T01:31:41;10.60;1.00
6443;DHT22;3254;47.372;8.512;2023-05-19T01:34:08;10.60;1.00
6443;DHT22;3254;47.372;8.512;2023-05-19T01:36:36;10.60;1.00
6443;DHT22;3254;47.372;8.512;2023-05-19T01:39:02;10.60;1.00
6443;DHT22;3254;47.372;8.512;2023-05-19T01:41:29;10.50;1.00
6443;DHT22;3254;47.372;8.512;2023-05-19T01:43:57;10.50;1.00
6443;DHT22;3254;47.372;8.512;2023-05-19T01:46:22;10.50;1.00
6443;DHT22;3254;47.372;8.512;2023-05-19T01:48:49;10.50;1.00
6443;DHT22;3254;47.372;8.512;2023-05-19T01:51:14;10.50;1.00
6443;DHT22;3254;47.372;8.512;2023-05-19T01:53:40;10.50;1.00
6443;DHT22;3254;47.372;8.512;2023-05-19T01:56:06;10.50;1.00
6443;DHT22;3254;47.372;8.512;2023-05-19T02:03:41;10.50;1.00
6443;DHT22;3254;47.372;8.512;2023-05-19T02:09:22;10.50;1.00
6443;DHT22;3254;47.372;8.512;2023-05-19T02:12:05;10.50;1.00
6443;DHT22;3254;47.372;8.512;2023-05-19T02:14:38;10.40;1.00
6443;DHT22;3254;47.372;8.512;2023-05-19T02:17:04;10.40;1.00
6443;DHT22;3254;47.372;8.512;2023-05-19T02:19:33;10.40;1.00
6443;DHT22;3254;47.372;8.512;2023-05-19T02:21:59;10.30;1.00
6443;DHT22;3254;47.372;8.512;2023-05-19T02:24:24;10.30;1.00
6443;DHT22;3254;47.372;8.512;2023-05-19T02:26:51;10.40;1.00
6443;DHT22;3254;47.372;8.512;2023-05-19T02:29:20;10.30;1.00
6443;DHT22;3254;47.372;8.512;2023-05-19T02:31:46;10.30;1.00
6443;DHT22;3254;47.372;8.512;2023-05-19T02:34:12;10.30;1.00
6443;DHT22;3254;47.372;8.512;2023-05-19T02:36:39;10.20;1.00
6443;DHT22;3254;47.372;8.512;2023-05-19T02:39:05;10.30;1.00
6443;DHT22;3254;47.372;8.512;2023-05-19T02:41:31;10.30;1.00
6443;DHT22;3254;47.372;8.512;2023-05-19T02:43:57;10.30;1.00
6443;DHT22;3254;47.372;8.512;2023-05-19T02:46:23;10.20;1.00
6443;DHT22;3254;47.372;8.512;2023-05-19T02:48:49;10.20;1.00
6443;DHT22;3254;47.372;8.512;2023-05-19T02:51:14;10.20;1.00
6443;DHT22;3254;47.372;8.512;2023-05-19T02:53:40;10.10;1.00
6443;DHT22;3254;47.372;8.512;2023-05-19T02:56:06;10.10;1.00
6443;DHT22;3254;47.372;8.512;2023-05-19T02:58:31;10.10;1.00
6443;DHT22;3254;47.372;8.512;2023-05-19T03:00:57;10.10;1.00
6443;DHT22;3254;47.372;8.512;2023-05-19T03:03:22;10.10;1.00
6443;DHT22;3254;47.372;8.512;2023-05-19T03:05:48;10.10;1.00
6443;DHT22;3254;47.372;8.512;2023-05-19T03:08:14;10.10;1.00
6443;DHT22;3254;47.372;8.512;2023-05-19T03:10:39;10.10;1.00
6443;DHT22;3254;47.372;8.512;2023-05-19T03:13:05;10.10;1.00
6443;DHT22;3254;47.372;8.512;2023-05-19T03:15:31;10.00;1.00
6443;DHT22;3254;47.372;8.512;2023-05-19T03:17:57;10.00;1.00
6443;DHT22;3254;47.372;8.512;2023-05-19T03:20:22;9.90;1.00
6443;DHT22;3254;47.372;8.512;2023-05-19T03:22:48;9.80;1.00
6443;DHT22;3254;47.372;8.512;2023-05-19T03:25:15;9.80;1.00
6443;DHT22;3254;47.372;8.512;2023-05-19T03:27:40;9.80;1.00
6443;DHT22;3254;47.372;8.512;2023-05-19T03:30:06;9.80;1.00
6443;DHT22;3254;47.372;8.512;2023-05-19T03:32:32;9.70;1.00
6443;DHT22;3254;47.372;8.512;2023-05-19T03:34:58;9.70;1.00
6443;DHT22;3254;47.372;8.512;2023-05-19T03:37:23;9.70;1.00
6443;DHT22;3254;47.372;8.512;2023-05-19T03:39:49;9.60;1.00
6443;DHT22;3254;47.372;8.512;2023-05-19T03:42:15;9.60;1.00
6443;DHT22;3254;47.372;8.512;2023-05-19T03:44:40;9.60;1.00
6443;DHT22;3254;47.372;8.512;2023-05-19T03:47:06;9.60;1.00
6443;DHT22;3254;47.372;8.512;2023-05-19T03:49:32;9.60;1.00
6443;DHT22;3254;47.372;8.512;2023-05-19T03:51:57;9.70;1.00
6443;DHT22;3254;47.372;8.512;2023-05-19T03:54:23;9.70;1.00
6443;DHT22;3254;47.372;8.512;2023-05-19T03:56:48;9.80;1.00
6443;DHT22;3254;47.372;8.512;2023-05-19T03:59:14;9.80;1.00
6443;DHT22;3254;47.372;8.512;2023-05-19T04:01:40;9.80;1.00
6443;DHT22;3254;47.372;8.512;2023-05-19T04:04:06;9.70;1.00
6443;DHT22;3254;47.372;8.512;2023-05-19T04:06:32;9.80;1.00
6443;DHT22;3254;47.372;8.512;2023-05-19T04:08:58;9.80;1.00
6443;DHT22;3254;47.372;8.512;2023-05-19T04:11:24;9.80;1.00
6443;DHT22;3254;47.372;8.512;2023-05-19T04:13:49;9.90;1.00
6443;DHT22;3254;47.372;8.512;2023-05-19T04:16:15;9.90;1.00
6443;DHT22;3254;47.372;8.512;2023-05-19T04:18:41;9.90;1.00
6443;DHT22;3254;47.372;8.512;2023-05-19T04:21:06;9.90;1.00
6443;DHT22;3254;47.372;8.512;2023-05-19T04:23:33;9.90;1.00
6443;DHT22;3254;47.372;8.512;2023-05-19T04:25:58;10.00;1.00
6443;DHT22;3254;47.372;8.512;2023-05-19T04:28:26;10.10;1.00
6443;DHT22;3254;47.372;8.512;2023-05-19T04:30:51;10.20;1.00
6443;DHT22;3254;47.372;8.512;2023-05-19T04:33:17;10.20;1.00
6443;DHT22;3254;47.372;8.512;2023-05-19T04:35:44;10.30;1.00
6443;DHT22;3254;47.372;8.512;2023-05-19T04:38:10;10.30;1.00
6443;DHT22;3254;47.372;8.512;2023-05-19T04:40:36;10.40;1.00
6443;DHT22;3254;47.372;8.512;2023-05-19T04:43:02;10.50;1.00
6443;DHT22;3254;47.372;8.512;2023-05-19T04:45:27;10.50;1.00
6443;DHT22;3254;47.372;8.512;2023-05-19T04:47:53;10.60;1.00
6443;DHT22;3254;47.372;8.512;2023-05-19T04:50:22;10.70;1.00
6443;DHT22;3254;47.372;8.512;2023-05-19T04:52:48;10.80;1.00
6443;DHT22;3254;47.372;8.512;2023-05-19T04:55:13;11.00;1.00
6443;DHT22;3254;47.372;8.512;2023-05-19T04:57:39;11.00;1.00
6443;DHT22;3254;47.372;8.512;2023-05-19T05:00:05;11.10;1.00
6443;DHT22;3254;47.372;8.512;2023-05-19T05:02:33;11.20;1.00
6443;DHT22;3254;47.372;8.512;2023-05-19T05:04:59;11.30;1.00
6443;DHT22;3254;47.372;8.512;2023-05-19T05:07:26;11.30;1.00
6443;DHT22;3254;47.372;8.512;2023-05-19T05:09:51;11.30;1.00
6443;DHT22;3254;47.372;8.512;2023-05-19T05:12:18;11.40;1.00
6443;DHT22;3254;47.372;8.512;2023-05-19T05:14:44;11.40;1.00
6443;DHT22;3254;47.372;8.512;2023-05-19T05:17:11;11.40;1.00
6443;DHT22;3254;47.372;8.512;2023-05-19T05:19:37;11.50;1.00
6443;DHT22;3254;47.372;8.512;2023-05-19T05:22:03;11.50;1.00
6443;DHT22;3254;47.372;8.512;2023-05-19T05:24:29;11.60;1.00
6443;DHT22;3254;47.372;8.512;2023-05-19T05:26:56;11.70;1.00
6443;DHT22;3254;47.372;8.512;2023-05-19T05:29:23;11.70;1.00
6443;DHT22;3254;47.372;8.512;2023-05-19T05:31:48;11.70;1.00
6443;DHT22;3254;47.372;8.512;2023-05-19T05:34:14;11.70;1.00
6443;DHT22;3254;47.372;8.512;2023-05-19T05:36:40;11.60;1.00
6443;DHT22;3254;47.372;8.512;2023-05-19T05:39:05;11.50;1.00
6443;DHT22;3254;47.372;8.512;2023-05-19T05:41:31;11.50;1.00
6443;DHT22;3254;47.372;8.512;2023-05-19T05:44:03;11.40;1.00
6443;DHT22;3254;47.372;8.512;2023-05-19T05:46:29;11.40;1.00
6443;DHT22;3254;47.372;8.512;2023-05-19T05:48:54;11.30;1.00
6443;DHT22;3254;47.372;8.512;2023-05-19T05:51:21;11.30;1.00
6443;DHT22;3254;47.372;8.512;2023-05-19T05:53:51;11.30;1.00
6443;DHT22;3254;47.372;8.512;2023-05-19T05:56:17;11.20;1.00
6443;DHT22;3254;47.372;8.512;2023-05-19T05:58:43;11.20;1.00
6443;DHT22;3254;47.372;8.512;2023-05-19T06:01:09;11.20;1.00
6443;DHT22;3254;47.372;8.512;2023-05-19T06:03:40;11.10;1.00
6443;DHT22;3254;47.372;8.512;2023-05-19T06:06:06;11.10;1.00
6443;DHT22;3254;47.372;8.512;2023-05-19T06:08:31;11.20;1.00
6443;DHT22;3254;47.372;8.512;2023-05-19T06:10:57;11.10;1.00
6443;DHT22;3254;47.372;8.512;2023-05-19T06:13:23;11.20;1.00
6443;DHT22;3254;47.372;8.512;2023-05-19T06:15:50;11.30;1.00
6443;DHT22;3254;47.372;8.512;2023-05-19T06:18:16;11.20;1.00
6443;DHT22;3254;47.372;8.512;2023-05-19T06:20:42;11.30;1.00
6443;DHT22;3254;47.372;8.512;2023-05-19T06:23:07;11.20;1.00
6443;DHT22;3254;47.372;8.512;2023-05-19T06:25:33;11.10;1.00
6443;DHT22;3254;47.372;8.512;2023-05-19T06:27:58;11.20;1.00
6443;DHT22;3254;47.372;8.512;2023-05-19T06:30:24;11.20;1.00
6443;DHT22;3254;47.372;8.512;2023-05-19T06:32:50;11.20;1.00
6443;DHT22;3254;47.372;8.512;2023-05-19T06:35:15;11.20;1.00
6443;DHT22;3254;47.372;8.512;2023-05-19T06:37:41;11.20;1.00
6443;DHT22;3254;47.372;8.512;2023-05-19T06:40:07;11.20;1.00
6443;DHT22;3254;47.372;8.512;2023-05-19T06:42:33;11.30;1.00
6443;DHT22;3254;47.372;8.512;2023-05-19T06:44:58;11.30;1.00
6443;DHT22;3254;47.372;8.512;2023-05-19T06:47:24;11.30;1.00
6443;DHT22;3254;47.372;8.512;2023-05-19T06:49:49;11.30;1.00
6443;DHT22;3254;47.372;8.512;2023-05-19T06:52:22;11.30;1.00
6443;DHT22;3254;47.372;8.512;2023-05-19T06:54:48;11.30;1.00
6443;DHT22;3254;47.372;8.512;2023-05-19T06:57:13;11.40;1.00
6443;DHT22;3254;47.372;8.512;2023-05-19T06:59:39;11.50;1.00
6443;DHT22;3254;47.372;8.512;2023-05-19T07:02:06;11.40;1.00
6443;DHT22;3254;47.372;8.512;2023-05-19T07:04:32;11.50;1.00
6443;DHT22;3254;47.372;8.512;2023-05-19T07:06:57;11.40;1.00
6443;DHT22;3254;47.372;8.512;2023-05-19T07:09:23;11.60;1.00
6443;DHT22;3254;47.372;8.512;2023-05-19T07:11:49;11.60;1.00
6443;DHT22;3254;47.372;8.512;2023-05-19T07:14:14;11.90;1.00
6443;DHT22;3254;47.372;8.512;2023-05-19T07:16:40;12.00;1.00
6443;DHT22;3254;47.372;8.512;2023-05-19T07:19:06;11.90;1.00
6443;DHT22;3254;47.372;8.512;2023-05-19T07:21:31;12.00;1.00
6443;DHT22;3254;47.372;8.512;2023-05-19T07:23:57;12.20;1.00
6443;DHT22;3254;47.372;8.512;2023-05-19T07:26:22;12.20;1.00
6443;DHT22;3254;47.372;8.512;2023-05-19T07:28:48;12.30;1.00
6443;DHT22;3254;47.372;8.512;2023-05-19T07:31:14;12.50;1.00
6443;DHT22;3254;47.372;8.512;2023-05-19T07:33:39;12.50;1.00
6443;DHT22;3254;47.372;8.512;2023-05-19T07:36:05;12.60;1.00
6443;DHT22;3254;47.372;8.512;2023-05-19T07:38:31;12.60;1.00
6443;DHT22;3254;47.372;8.512;2023-05-19T07:40:59;12.70;1.00
6443;DHT22;3254;47.372;8.512;2023-05-19T07:43:25;12.90;1.00
6443;DHT22;3254;47.372;8.512;2023-05-19T07:45:51;13.30;1.00
6443;DHT22;3254;47.372;8.512;2023-05-19T07:48:18;13.70;1.00
6443;DHT22;3254;47.372;8.512;2023-05-19T07:50:46;13.90;1.00
6443;DHT22;3254;47.372;8.512;2023-05-19T07:53:12;14.00;1.00
6443;DHT22;3254;47.372;8.512;2023-05-19T07:55:38;14.20;1.00
6443;DHT22;3254;47.372;8.512;2023-05-19T07:58:04;14.50;1.00
6443;DHT22;3254;47.372;8.512;2023-05-19T08:00:29;14.50;1.00
6443;DHT22;3254;47.372;8.512;2023-05-19T08:02:55;14.20;1.00
6443;DHT22;3254;47.372;8.512;2023-05-19T08:05:21;14.20;1.00
6443;DHT22;3254;47.372;8.512;2023-05-19T08:07:47;13.80;1.00
6443;DHT22;3254;47.372;8.512;2023-05-19T08:10:13;13.70;1.00
6443;DHT22;3254;47.372;8.512;2023-05-19T08:12:39;13.50;1.00
6443;DHT22;3254;47.372;8.512;2023-05-19T08:15:05;13.60;1.00
6443;DHT22;3254;47.372;8.512;2023-05-19T08:17:31;13.70;1.00
6443;DHT22;3254;47.372;8.512;2023-05-19T08:19:57;13.70;1.00
6443;DHT22;3254;47.372;8.512;2023-05-19T08:22:22;13.50;1.00
6443;DHT22;3254;47.372;8.512;2023-05-19T08:24:48;13.40;1.00
6443;DHT22;3254;47.372;8.512;2023-05-19T08:27:15;13.30;1.00
6443;DHT22;3254;47.372;8.512;2023-05-19T08:29:41;13.30;1.00
6443;DHT22;3254;47.372;8.512;2023-05-19T08:32:07;13.30;1.00
6443;DHT22;3254;47.372;8.512;2023-05-19T08:34:33;13.20;1.00
6443;DHT22;3254;47.372;8.512;2023-05-19T08:36:59;13.00;1.00
6443;DHT22;3254;47.372;8.512;2023-05-19T08:39:24;12.90;1.00
6443;DHT22;3254;47.372;8.512;2023-05-19T08:41:54;13.10;1.00
6443;DHT22;3254;47.372;8.512;2023-05-19T08:44:21;13.20;1.00
6443;DHT22;3254;47.372;8.512;2023-05-19T08:46:46;13.40;1.00
6443;DHT22;3254;47.372;8.512;2023-05-19T08:49:13;13.50;1.00
6443;DHT22;3254;47.372;8.512;2023-05-19T08:51:49;13.90;1.00
6443;DHT22;3254;47.372;8.512;2023-05-19T08:54:22;14.30;1.00
6443;DHT22;3254;47.372;8.512;2023-05-19T08:56:50;14.60;1.00
6443;DHT22;3254;47.372;8.512;2023-05-19T08:59:16;14.90;1.00
6443;DHT22;3254;47.372;8.512;2023-05-19T09:01:46;15.10;1.00
6443;DHT22;3254;47.372;8.512;2023-05-19T09:04:12;15.20;1.00
6443;DHT22;3254;47.372;8.512;2023-05-19T09:06:38;15.00;1.00
6443;DHT22;3254;47.372;8.512;2023-05-19T09:09:06;14.90;1.00
6443;DHT22;3254;47.372;8.512;2023-05-19T09:11:33;14.80;1.00
6443;DHT22;3254;47.372;8.512;2023-05-19T09:14:00;14.80;1.00
6443;DHT22;3254;47.372;8.512;2023-05-19T09:16:25;14.70;1.00
6443;DHT22;3254;47.372;8.512;2023-05-19T09:18:55;14.40;1.00
6443;DHT22;3254;47.372;8.512;2023-05-19T09:21:31;14.40;1.00
6443;DHT22;3254;47.372;8.512;2023-05-19T09:24:08;14.40;1.00
6443;DHT22;3254;47.372;8.512;2023-05-19T09:26:41;14.40;1.00
6443;DHT22;3254;47.372;8.512;2023-05-19T09:29:16;14.50;1.00
6443;DHT22;3254;47.372;8.512;2023-05-19T09:31:55;14.30;1.00
6443;DHT22;3254;47.372;8.512;2023-05-19T09:34:25;14.20;1.00
6443;DHT22;3254;47.372;8.512;2023-05-19T09:36:52;14.30;1.00
6443;DHT22;3254;47.372;8.512;2023-05-19T09:39:19;14.60;1.00
6443;DHT22;3254;47.372;8.512;2023-05-19T09:41:45;14.90;1.00
6443;DHT22;3254;47.372;8.512;2023-05-19T09:44:22;15.10;1.00
6443;DHT22;3254;47.372;8.512;2023-05-19T09:46:52;15.50;1.00
6443;DHT22;3254;47.372;8.512;2023-05-19T09:49:18;15.60;1.00
6443;DHT22;3254;47.372;8.512;2023-05-19T09:51:45;15.70;1.00
6443;DHT22;3254;47.372;8.512;2023-05-19T09:54:14;15.80;1.00
6443;DHT22;3254;47.372;8.512;2023-05-19T09:56:40;15.80;1.00
6443;DHT22;3254;47.372;8.512;2023-05-19T09:59:06;16.00;1.00
6443;DHT22;3254;47.372;8.512;2023-05-19T10:01:32;16.20;1.00
6443;DHT22;3254;47.372;8.512;2023-05-19T10:03:59;16.30;1.00
6443;DHT22;3254;47.372;8.512;2023-05-19T10:06:25;16.30;1.00
6443;DHT22;3254;47.372;8.512;2023-05-19T10:08:51;16.40;1.00
6443;DHT22;3254;47.372;8.512;2023-05-19T10:11:17;16.50;1.00
6443;DHT22;3254;47.372;8.512;2023-05-19T10:13:44;16.50;1.00
6443;DHT22;3254;47.372;8.512;2023-05-19T10:16:11;16.50;1.00
6443;DHT22;3254;47.372;8.512;2023-05-19T10:18:38;17.00;1.00
6443;DHT22;3254;47.372;8.512;2023-05-19T10:21:06;17.10;1.00
6443;DHT22;3254;47.372;8.512;2023-05-19T10:23:31;17.20;1.00
6443;DHT22;3254;47.372;8.512;2023-05-19T10:25:59;17.20;1.00
6443;DHT22;3254;47.372;8.512;2023-05-19T10:28:31;17.50;1.00
6443;DHT22;3254;47.372;8.512;2023-05-19T10:31:00;17.50;1.00
6443;DHT22;3254;47.372;8.512;2023-05-19T10:37:02;18.10;1.00
6443;DHT22;3254;47.372;8.512;2023-05-19T10:39:33;18.10;1.00
6443;DHT22;3254;47.372;8.512;2023-05-19T10:42:15;18.10;1.00
6443;DHT22;3254;47.372;8.512;2023-05-19T10:44:57;17.80;1.00
6443;DHT22;3254;47.372;8.512;2023-05-19T10:47:26;17.80;1.00
6443;DHT22;3254;47.372;8.512;2023-05-19T10:49:52;17.90;1.00
6443;DHT22;3254;47.372;8.512;2023-05-19T10:52:19;18.10;1.00
6443;DHT22;3254;47.372;8.512;2023-05-19T10:54:54;18.40;1.00
6443;DHT22;3254;47.372;8.512;2023-05-19T10:57:24;18.60;1.00
6443;DHT22;3254;47.372;8.512;2023-05-19T10:59:56;18.70;1.00
6443;DHT22;3254;47.372;8.512;2023-05-19T11:02:41;18.50;1.00
6443;DHT22;3254;47.372;8.512;2023-05-19T11:05:12;18.40;1.00
6443;DHT22;3254;47.372;8.512;2023-05-19T11:07:58;18.00;1.00
6443;DHT22;3254;47.372;8.512;2023-05-19T11:10:30;17.90;1.00
6443;DHT22;3254;47.372;8.512;2023-05-19T11:12:57;18.20;1.00
6443;DHT22;3254;47.372;8.512;2023-05-19T11:15:26;18.80;1.00
6443;DHT22;3254;47.372;8.512;2023-05-19T11:17:53;19.10;1.00
6443;DHT22;3254;47.372;8.512;2023-05-19T11:20:23;19.30;1.00
6443;DHT22;3254;47.372;8.512;2023-05-19T11:23:05;18.70;1.00
6443;DHT22;3254;47.372;8.512;2023-05-19T11:25:47;18.30;1.00
6443;DHT22;3254;47.372;8.512;2023-05-19T11:28:18;18.10;1.00
6443;DHT22;3254;47.372;8.512;2023-05-19T11:30:45;18.40;1.00
6443;DHT22;3254;47.372;8.512;2023-05-19T11:33:13;18.60;1.00
6443;DHT22;3254;47.372;8.512;2023-05-19T11:35:45;19.30;1.00
6443;DHT22;3254;47.372;8.512;2023-05-19T11:38:12;19.60;1.00
6443;DHT22;3254;47.372;8.512;2023-05-19T11:40:39;19.60;1.00
6443;DHT22;3254;47.372;8.512;2023-05-19T11:43:06;19.50;1.00
6443;DHT22;3254;47.372;8.512;2023-05-19T11:45:31;19.80;1.00
6443;DHT22;3254;47.372;8.512;2023-05-19T11:47:58;19.70;1.00
6443;DHT22;3254;47.372;8.512;2023-05-19T11:50:24;19.60;1.00
6443;DHT22;3254;47.372;8.512;2023-05-19T11:52:51;19.70;1.00
6443;DHT22;3254;47.372;8.512;2023-05-19T11:55:21;19.60;1.00
6443;DHT22;3254;47.372;8.512;2023-05-19T11:58:05;20.00;1.00
6443;DHT22;3254;47.372;8.512;2023-05-19T12:00:35;20.70;1.00
6443;DHT22;3254;47.372;8.512;2023-05-19T12:03:04;21.30;1.00
6443;DHT22;3254;47.372;8.512;2023-05-19T12:05:30;21.80;1.00
6443;DHT22;3254;47.372;8.512;2023-05-19T12:07:56;22.30;1.00
6443;DHT22;3254;47.372;8.512;2023-05-19T12:10:26;22.00;1.00
6443;DHT22;3254;47.372;8.512;2023-05-19T12:12:53;22.00;1.00
6443;DHT22;3254;47.372;8.512;2023-05-19T12:15:22;22.20;1.00
6443;DHT22;3254;47.372;8.512;2023-05-19T12:17:56;22.70;1.00
6443;DHT22;3254;47.372;8.512;2023-05-19T12:20:26;23.20;1.00
6443;DHT22;3254;47.372;8.512;2023-05-19T12:22:54;23.30;1.00
6443;DHT22;3254;47.372;8.512;2023-05-19T12:25:20;23.70;1.00
6443;DHT22;3254;47.372;8.512;2023-05-19T12:27:45;23.80;1.00
6443;DHT22;3254;47.372;8.512;2023-05-19T12:30:13;24.00;1.00
6443;DHT22;3254;47.372;8.512;2023-05-19T12:32:38;23.20;1.00
6443;DHT22;3254;47.372;8.512;2023-05-19T12:35:05;23.40;1.00
6443;DHT22;3254;47.372;8.512;2023-05-19T12:37:33;23.80;1.00
6443;DHT22;3254;47.372;8.512;2023-05-19T12:40:00;23.60;1.00
6443;DHT22;3254;47.372;8.512;2023-05-19T12:42:26;23.00;1.00
6443;DHT22;3254;47.372;8.512;2023-05-19T12:44:57;23.00;1.00
6443;DHT22;3254;47.372;8.512;2023-05-19T12:47:29;23.10;1.00
6443;DHT22;3254;47.372;8.512;2023-05-19T12:50:05;22.80;1.00
6443;DHT22;3254;47.372;8.512;2023-05-19T12:52:43;22.30;1.00
6443;DHT22;3254;47.372;8.512;2023-05-19T12:55:10;22.20;1.00
6443;DHT22;3254;47.372;8.512;2023-05-19T12:57:40;21.50;1.00
6443;DHT22;3254;47.372;8.512;2023-05-19T13:00:20;21.40;1.00
6443;DHT22;3254;47.372;8.512;2023-05-19T13:05:28;20.90;1.00
6443;DHT22;3254;47.372;8.512;2023-05-19T13:10:20;21.40;1.00
6443;DHT22;3254;47.372;8.512;2023-05-19T13:12:46;21.10;1.00
6443;DHT22;3254;47.372;8.512;2023-05-19T13:15:11;20.30;1.00
6443;DHT22;3254;47.372;8.512;2023-05-19T13:17:37;20.30;1.00
6443;DHT22;3254;47.372;8.512;2023-05-19T13:20:03;20.70;1.00
6443;DHT22;3254;47.372;8.512;2023-05-19T13:22:29;21.10;1.00
6443;DHT22;3254;47.372;8.512;2023-05-19T13:24:54;21.30;1.00
6443;DHT22;3254;47.372;8.512;2023-05-19T13:27:23;21.40;1.00
6443;DHT22;3254;47.372;8.512;2023-05-19T13:29:49;21.60;1.00
6443;DHT22;3254;47.372;8.512;2023-05-19T13:32:15;21.40;1.00
6443;DHT22;3254;47.372;8.512;2023-05-19T13:34:41;21.30;1.00
6443;DHT22;3254;47.372;8.512;2023-05-19T13:37:06;21.30;1.00
6443;DHT22;3254;47.372;8.512;2023-05-19T13:39:35;20.90;1.00
6443;DHT22;3254;47.372;8.512;2023-05-19T13:42:01;20.40;1.00
6443;DHT22;3254;47.372;8.512;2023-05-19T13:44:27;19.90;1.00
6443;DHT22;3254;47.372;8.512;2023-05-19T13:46:52;19.40;1.00
6443;DHT22;3254;47.372;8.512;2023-05-19T13:49:18;19.10;1.00
6443;DHT22;3254;47.372;8.512;2023-05-19T13:51:44;19.10;1.00
6443;DHT22;3254;47.372;8.512;2023-05-19T13:54:09;19.10;1.00
6443;DHT22;3254;47.372;8.512;2023-05-19T13:56:35;18.80;1.00
6443;DHT22;3254;47.372;8.512;2023-05-19T13:59:01;18.90;1.00
6443;DHT22;3254;47.372;8.512;2023-05-19T14:01:28;18.90;1.00
6443;DHT22;3254;47.372;8.512;2023-05-19T14:03:54;19.00;1.00
6443;DHT22;3254;47.372;8.512;2023-05-19T14:06:19;19.10;1.00
6443;DHT22;3254;47.372;8.512;2023-05-19T14:08:45;19.10;1.00
6443;DHT22;3254;47.372;8.512;2023-05-19T14:11:18;18.70;1.00
6443;DHT22;3254;47.372;8.512;2023-05-19T14:13:44;18.40;1.00
6443;DHT22;3254;47.372;8.512;2023-05-19T14:16:10;18.30;1.00
6443;DHT22;3254;47.372;8.512;2023-05-19T14:18:36;18.30;1.00
6443;DHT22;3254;47.372;8.512;2023-05-19T14:21:01;18.20;1.00
6443;DHT22;3254;47.372;8.512;2023-05-19T14:23:27;18.10;1.00
6443;DHT22;3254;47.372;8.512;2023-05-19T14:25:54;18.10;1.00
6443;DHT22;3254;47.372;8.512;2023-05-19T14:28:20;17.90;1.00
6443;DHT22;3254;47.372;8.512;2023-05-19T14:30:46;17.60;1.00
6443;DHT22;3254;47.372;8.512;2023-05-19T14:33:11;17.60;1.00
6443;DHT22;3254;47.372;8.512;2023-05-19T14:35:37;17.50;1.00
6443;DHT22;3254;47.372;8.512;2023-05-19T14:38:02;17.40;1.00
6443;DHT22;3254;47.372;8.512;2023-05-19T14:40:28;17.60;1.00
6443;DHT22;3254;47.372;8.512;2023-05-19T14:42:54;17.40;1.00
6443;DHT22;3254;47.372;8.512;2023-05-19T14:45:19;17.20;1.00
6443;DHT22;3254;47.372;8.512;2023-05-19T14:47:45;17.20;1.00
6443;DHT22;3254;47.372;8.512;2023-05-19T14:50:10;17.30;1.00
6443;DHT22;3254;47.372;8.512;2023-05-19T14:52:36;17.30;1.00
6443;DHT22;3254;47.372;8.512;2023-05-19T14:55:02;17.20;1.00
6443;DHT22;3254;47.372;8.512;2023-05-19T14:57:27;17.50;1.00
6443;DHT22;3254;47.372;8.512;2023-05-19T14:59:53;17.40;1.00
6443;DHT22;3254;47.372;8.512;2023-05-19T15:02:18;17.30;1.00
6443;DHT22;3254;47.372;8.512;2023-05-19T15:04:44;17.30;1.00
6443;DHT22;3254;47.372;8.512;2023-05-19T15:07:09;17.20;1.00
6443;DHT22;3254;47.372;8.512;2023-05-19T15:09:35;17.20;1.00
6443;DHT22;3254;47.372;8.512;2023-05-19T15:12:01;17.20;1.00
6443;DHT22;3254;47.372;8.512;2023-05-19T15:14:27;17.00;1.00
6443;DHT22;3254;47.372;8.512;2023-05-19T15:16:52;17.10;1.00
6443;DHT22;3254;47.372;8.512;2023-05-19T15:19:18;17.20;1.00
6443;DHT22;3254;47.372;8.512;2023-05-19T15:21:43;17.20;1.00
6443;DHT22;3254;47.372;8.512;2023-05-19T15:24:10;17.30;1.00
6443;DHT22;3254;47.372;8.512;2023-05-19T15:26:36;17.30;1.00
6443;DHT22;3254;47.372;8.512;2023-05-19T15:29:02;17.20;1.00
6443;DHT22;3254;47.372;8.512;2023-05-19T15:31:27;17.00;1.00
6443;DHT22;3254;47.372;8.512;2023-05-19T15:33:53;16.80;1.00
6443;DHT22;3254;47.372;8.512;2023-05-19T15:36:19;16.50;1.00
6443;DHT22;3254;47.372;8.512;2023-05-19T15:38:44;16.30;1.00
6443;DHT22;3254;47.372;8.512;2023-05-19T15:41:10;16.10;1.00
6443;DHT22;3254;47.372;8.512;2023-05-19T15:43:35;16.10;1.00
6443;DHT22;3254;47.372;8.512;2023-05-19T15:46:01;16.10;1.00
6443;DHT22;3254;47.372;8.512;2023-05-19T15:48:29;16.10;1.00
6443;DHT22;3254;47.372;8.512;2023-05-19T15:50:57;16.10;1.00
6443;DHT22;3254;47.372;8.512;2023-05-19T15:53:23;16.10;1.00
6443;DHT22;3254;47.372;8.512;2023-05-19T15:55:49;16.20;1.00
6443;DHT22;3254;47.372;8.512;2023-05-19T15:58:15;16.10;1.00
6443;DHT22;3254;47.372;8.512;2023-05-19T16:00:41;16.00;1.00
6443;DHT22;3254;47.372;8.512;2023-05-19T16:03:06;16.00;1.00
6443;DHT22;3254;47.372;8.512;2023-05-19T16:05:32;16.10;1.00
6443;DHT22;3254;47.372;8.512;2023-05-19T16:07:57;16.10;1.00
6443;DHT22;3254;47.372;8.512;2023-05-19T16:10:23;16.20;1.00
6443;DHT22;3254;47.372;8.512;2023-05-19T16:12:49;16.20;1.00
6443;DHT22;3254;47.372;8.512;2023-05-19T16:15:14;16.20;1.00
6443;DHT22;3254;47.372;8.512;2023-05-19T16:17:40;16.00;1.00
6443;DHT22;3254;47.372;8.512;2023-05-19T16:20:06;15.90;1.00
6443;DHT22;3254;47.372;8.512;2023-05-19T16:22:32;16.00;1.00
6443;DHT22;3254;47.372;8.512;2023-05-19T16:24:57;16.00;1.00
6443;DHT22;3254;47.372;8.512;2023-05-19T16:27:23;16.10;1.00
6443;DHT22;3254;47.372;8.512;2023-05-19T16:29:49;16.10;1.00
6443;DHT22;3254;47.372;8.512;2023-05-19T16:32:14;16.00;1.00
6443;DHT22;3254;47.372;8.512;2023-05-19T16:34:40;16.10;1.00
6443;DHT22;3254;47.372;8.512;2023-05-19T16:37:06;16.10;1.00
6443;DHT22;3254;47.372;8.512;2023-05-19T16:39:31;16.10;1.00